createdAt,value
2018-08-13T00:00:18.723Z,933.71
2018-08-13T00:01:18.664Z,933.70
2018-08-13T00:02:18.651Z,933.72
2018-08-13T00:03:18.601Z,933.73
2018-08-13T00:04:18.597Z,933.73
2018-08-13T00:05:18.548Z,933.71
2018-08-13T00:06:18.531Z,933.66
2018-08-13T00:07:18.517Z,933.77
2018-08-13T00:08:18.486Z,933.68
2018-08-13T00:09:18.445Z,933.71
2018-08-13T00:10:18.443Z,933.69
2018-08-13T00:11:18.419Z,933.79
2018-08-13T00:12:18.395Z,933.70
2018-08-13T00:13:18.346Z,933.69
2018-08-13T00:14:18.341Z,933.69
2018-08-13T00:15:18.313Z,933.77
2018-08-13T00:16:18.291Z,933.80
2018-08-13T00:17:18.262Z,933.76
2018-08-13T00:18:18.239Z,933.74
2018-08-13T00:19:18.215Z,933.78
2018-08-13T00:20:18.183Z,933.80
2018-08-13T00:21:18.160Z,933.80
2018-08-13T00:22:18.119Z,933.81
2018-08-13T00:23:18.110Z,933.82
2018-08-13T00:24:18.082Z,933.85
2018-08-13T00:25:18.046Z,933.82
2018-08-13T00:26:18.030Z,933.81
2018-08-13T00:27:18.012Z,933.73
2018-08-13T00:28:18.315Z,933.76
2018-08-13T00:29:17.947Z,933.70
2018-08-13T00:30:17.916Z,933.81
2018-08-13T00:31:17.909Z,933.83
2018-08-13T00:32:17.879Z,933.85
2018-08-13T00:33:17.862Z,933.85
2018-08-13T00:34:17.838Z,933.84
2018-08-13T00:35:17.815Z,933.89
2018-08-13T00:36:17.775Z,933.93
2018-08-13T00:37:17.755Z,933.84
2018-08-13T00:38:17.711Z,933.86
2018-08-13T00:39:17.704Z,933.85
2018-08-13T00:40:17.680Z,933.91
2018-08-13T00:41:17.653Z,933.83
2018-08-13T00:42:17.625Z,933.88
2018-08-13T00:43:17.604Z,933.90
2018-08-13T00:44:17.798Z,933.89
2018-08-13T00:45:17.555Z,933.86
2018-08-13T00:46:17.528Z,933.88
2018-08-13T00:47:17.501Z,933.89
2018-08-13T00:48:17.480Z,933.87
2018-08-13T00:49:17.455Z,933.91
2018-08-13T00:50:17.723Z,933.97
2018-08-13T00:51:17.399Z,933.95
2018-08-13T00:52:17.358Z,933.88
2018-08-13T00:53:17.346Z,933.90
2018-08-13T00:54:17.325Z,933.94
2018-08-13T00:55:17.297Z,933.90
2018-08-13T00:56:17.267Z,933.89
2018-08-13T00:57:17.241Z,933.90
2018-08-13T00:58:17.232Z,933.92
2018-08-13T00:59:17.191Z,933.86
2018-08-13T01:00:17.168Z,933.90
2018-08-13T01:01:17.148Z,933.96
2018-08-13T01:02:17.125Z,933.93
2018-08-13T01:03:17.097Z,933.96
2018-08-13T01:04:17.070Z,933.90
2018-08-13T01:05:17.044Z,933.95
2018-08-13T01:06:17.020Z,933.87
2018-08-13T01:07:17.001Z,933.93
2018-08-13T01:08:16.967Z,933.96
2018-08-13T01:09:16.945Z,933.95
2018-08-13T01:10:16.920Z,933.95
2018-08-13T01:11:16.887Z,933.91
2018-08-13T01:12:16.872Z,933.92
2018-08-13T01:13:16.846Z,933.96
2018-08-13T01:14:16.814Z,934.01
2018-08-13T01:15:16.795Z,933.99
2018-08-13T01:16:16.743Z,933.98
2018-08-13T01:17:16.737Z,933.95
2018-08-13T01:18:16.699Z,933.97
2018-08-13T01:19:16.689Z,933.97
2018-08-13T01:20:16.666Z,933.89
2018-08-13T01:21:16.634Z,933.91
2018-08-13T01:22:16.609Z,933.87
2018-08-13T01:23:16.584Z,933.91
2018-08-13T01:24:16.558Z,933.89
2018-08-13T01:25:16.542Z,933.91
2018-08-13T01:26:16.509Z,933.90
2018-08-13T01:27:16.497Z,933.88
2018-08-13T01:28:16.461Z,933.94
2018-08-13T01:29:16.421Z,933.90
2018-08-13T01:30:16.410Z,933.94
2018-08-13T01:31:16.384Z,933.90
2018-08-13T01:32:16.338Z,933.91
2018-08-13T01:33:16.331Z,933.88
2018-08-13T01:34:16.288Z,933.91
2018-08-13T01:35:16.282Z,933.89
2018-08-13T01:36:16.259Z,933.86
2018-08-13T01:37:16.212Z,933.85
2018-08-13T01:38:16.216Z,933.83
2018-08-13T01:39:16.184Z,933.85
2018-08-13T01:40:16.156Z,933.85
2018-08-13T01:41:16.133Z,933.85
2018-08-13T01:42:16.087Z,933.83
2018-08-13T01:43:16.081Z,933.88
2018-08-13T01:44:16.037Z,933.89
2018-08-13T01:45:16.035Z,933.88
2018-08-13T01:46:16.006Z,933.92
2018-08-13T01:47:15.961Z,933.88
2018-08-13T01:48:15.954Z,933.88
2018-08-13T01:49:15.933Z,933.96
2018-08-13T01:50:15.902Z,933.93
2018-08-13T01:51:15.880Z,933.96
2018-08-13T01:52:15.854Z,933.91
2018-08-13T01:53:15.827Z,933.89
2018-08-13T01:54:15.808Z,933.80
2018-08-13T01:55:15.775Z,933.83
2018-08-13T01:56:15.753Z,933.84
2018-08-13T01:57:15.731Z,933.89
2018-08-13T01:58:15.706Z,933.78
2018-08-13T01:59:15.659Z,933.82
2018-08-13T02:00:15.631Z,933.83
2018-08-13T02:01:15.682Z,933.80
2018-08-13T02:02:15.606Z,933.77
2018-08-13T02:03:15.572Z,933.79
2018-08-13T02:04:15.554Z,933.71
2018-08-13T02:05:15.521Z,933.78
2018-08-13T02:06:15.499Z,933.84
2018-08-13T02:07:15.476Z,933.83
2018-08-13T02:08:15.448Z,933.83
2018-08-13T02:09:15.406Z,933.75
2018-08-13T02:10:15.403Z,933.82
2018-08-13T02:11:15.372Z,933.79
2018-08-13T02:12:15.352Z,933.82
2018-08-13T02:13:15.350Z,933.77
2018-08-13T02:14:15.280Z,933.76
2018-08-13T02:15:15.258Z,933.77
2018-08-13T02:16:15.250Z,933.82
2018-08-13T02:17:15.218Z,933.81
2018-08-13T02:18:15.201Z,933.85
2018-08-13T02:19:15.167Z,933.86
2018-08-13T02:20:15.144Z,933.78
2018-08-13T02:21:15.120Z,933.80
2018-08-13T02:22:15.093Z,933.78
2018-08-13T02:23:15.058Z,933.80
2018-08-13T02:24:15.045Z,933.74
2018-08-13T02:25:15.018Z,933.76
2018-08-13T02:26:15.003Z,933.76
2018-08-13T02:27:14.969Z,933.75
2018-08-13T02:28:14.940Z,933.80
2018-08-13T02:29:48.131Z,933.74
2018-08-13T02:30:14.894Z,933.78
2018-08-13T02:31:14.870Z,933.81
2018-08-13T02:32:14.842Z,933.78
2018-08-13T02:33:14.814Z,933.75
2018-08-13T02:34:14.798Z,933.81
2018-08-13T02:35:14.773Z,933.79
2018-08-13T02:36:14.726Z,933.75
2018-08-13T02:37:14.699Z,933.77
2018-08-13T02:38:14.695Z,933.74
2018-08-13T02:39:14.757Z,933.79
2018-08-13T02:40:14.643Z,933.77
2018-08-13T02:41:14.612Z,933.79
2018-08-13T02:42:14.590Z,933.80
2018-08-13T02:43:14.565Z,933.76
2018-08-13T02:44:14.538Z,933.74
2018-08-13T02:45:14.517Z,933.68
2018-08-13T02:46:14.488Z,933.73
2018-08-13T02:47:14.471Z,933.72
2018-08-13T02:48:14.436Z,933.71
2018-08-13T02:49:14.397Z,933.70
2018-08-13T02:50:14.384Z,933.73
2018-08-13T02:51:14.341Z,933.64
2018-08-13T02:52:14.334Z,933.64
2018-08-13T02:53:14.311Z,933.70
2018-08-13T02:54:14.281Z,933.72
2018-08-13T02:55:14.262Z,933.71
2018-08-13T02:56:14.231Z,933.71
2018-08-13T02:57:14.207Z,933.70
2018-08-13T02:58:14.220Z,933.65
2018-08-13T02:59:14.158Z,933.66
2018-08-13T03:00:14.114Z,933.67
2018-08-13T03:01:14.103Z,933.69
2018-08-13T03:02:14.088Z,933.69
2018-08-13T03:03:14.064Z,933.67
2018-08-13T03:04:14.036Z,933.67
2018-08-13T03:05:14.016Z,933.65
2018-08-13T03:06:14.002Z,933.66
2018-08-13T03:07:13.960Z,933.57
2018-08-13T03:08:13.933Z,933.56
2018-08-13T03:09:13.905Z,933.60
2018-08-13T03:10:13.884Z,933.59
2018-08-13T03:11:13.862Z,933.64
2018-08-13T03:12:13.831Z,933.61
2018-08-13T03:13:13.803Z,933.71
2018-08-13T03:14:13.780Z,933.64
2018-08-13T03:15:13.730Z,933.61
2018-08-13T03:16:13.755Z,933.63
2018-08-13T03:17:13.701Z,933.60
2018-08-13T03:18:13.677Z,933.60
2018-08-13T03:19:13.658Z,933.55
2018-08-13T03:20:13.628Z,933.59
2018-08-13T03:21:13.597Z,933.63
2018-08-13T03:22:13.572Z,933.59
2018-08-13T03:23:13.551Z,933.58
2018-08-13T03:24:13.527Z,933.61
2018-08-13T03:25:13.507Z,933.60
2018-08-13T03:26:13.476Z,933.59
2018-08-13T03:27:13.461Z,933.56
2018-08-13T03:28:13.424Z,933.56
2018-08-13T03:29:13.398Z,933.52
2018-08-13T03:30:13.379Z,933.46
2018-08-13T03:31:13.347Z,933.52
2018-08-13T03:32:13.307Z,933.50
2018-08-13T03:33:13.299Z,933.48
2018-08-13T03:34:13.271Z,933.50
2018-08-13T03:35:13.224Z,933.46
2018-08-13T03:36:13.221Z,933.47
2018-08-13T03:37:13.199Z,933.47
2018-08-13T03:38:13.167Z,933.48
2018-08-13T03:39:13.126Z,933.47
2018-08-13T03:40:13.117Z,933.49
2018-08-13T03:41:13.095Z,933.48
2018-08-13T03:42:13.065Z,933.53
2018-08-13T03:43:13.048Z,933.50
2018-08-13T03:44:13.016Z,933.46
2018-08-13T03:45:12.985Z,933.43
2018-08-13T03:46:12.960Z,933.41
2018-08-13T03:47:12.935Z,933.38
2018-08-13T03:48:12.911Z,933.36
2018-08-13T03:49:12.879Z,933.41
2018-08-13T03:50:12.837Z,933.36
2018-08-13T03:51:12.837Z,933.36
2018-08-13T03:52:12.805Z,933.35
2018-08-13T03:53:12.790Z,933.34
2018-08-13T03:54:12.757Z,933.33
2018-08-13T03:55:12.728Z,933.34
2018-08-13T03:56:12.712Z,933.37
2018-08-13T03:57:12.690Z,933.32
2018-08-13T03:58:12.638Z,933.36
2018-08-13T03:59:12.627Z,933.40
2018-08-13T04:00:12.600Z,933.40
2018-08-13T04:01:12.574Z,933.36
2018-08-13T04:02:12.550Z,933.33
2018-08-13T04:03:12.522Z,933.32
2018-08-13T04:04:12.500Z,933.27
2018-08-13T04:05:12.473Z,933.25
2018-08-13T04:06:12.445Z,933.28
2018-08-13T04:07:12.403Z,933.28
2018-08-13T04:08:12.389Z,933.25
2018-08-13T04:09:12.371Z,933.23
2018-08-13T04:10:12.325Z,933.25
2018-08-13T04:11:12.320Z,933.23
2018-08-13T04:12:12.326Z,933.16
2018-08-13T04:13:12.263Z,933.20
2018-08-13T04:14:12.246Z,933.20
2018-08-13T04:15:12.215Z,933.16
2018-08-13T04:16:12.184Z,933.20
2018-08-13T04:17:12.156Z,933.16
2018-08-13T04:18:12.141Z,933.17
2018-08-13T04:19:12.111Z,933.21
2018-08-13T04:20:12.085Z,933.14
2018-08-13T04:21:12.060Z,933.16
2018-08-13T04:22:12.030Z,933.12
2018-08-13T04:23:12.004Z,933.16
2018-08-13T04:24:11.981Z,933.13
2018-08-13T04:25:11.957Z,933.15
2018-08-13T04:26:11.926Z,933.15
2018-08-13T04:27:11.878Z,933.14
2018-08-13T04:28:11.868Z,933.17
2018-08-13T04:29:11.847Z,933.19
2018-08-13T04:30:11.821Z,933.13
2018-08-13T04:31:11.778Z,933.11
2018-08-13T04:32:11.767Z,933.11
2018-08-13T04:33:11.740Z,933.11
2018-08-13T04:34:11.712Z,933.10
2018-08-13T04:35:11.673Z,933.13
2018-08-13T04:36:11.661Z,933.12
2018-08-13T04:37:11.623Z,933.10
2018-08-13T04:38:11.611Z,933.13
2018-08-13T04:39:11.585Z,933.13
2018-08-13T04:40:11.558Z,933.09
2018-08-13T04:41:11.534Z,933.09
2018-08-13T04:42:11.508Z,933.07
2018-08-13T04:43:11.481Z,933.07
2018-08-13T04:44:11.434Z,933.03
2018-08-13T04:45:11.429Z,933.05
2018-08-13T04:46:11.407Z,933.00
2018-08-13T04:47:11.375Z,933.00
2018-08-13T04:48:11.349Z,932.96
2018-08-13T04:49:11.328Z,932.95
2018-08-13T04:50:11.278Z,932.94
2018-08-13T04:51:11.267Z,932.96
2018-08-13T04:52:11.262Z,932.99
2018-08-13T04:53:11.219Z,933.00
2018-08-13T04:54:11.188Z,932.93
2018-08-13T04:55:11.165Z,932.92
2018-08-13T04:56:11.139Z,932.91
2018-08-13T04:57:11.117Z,932.90
2018-08-13T04:58:11.100Z,932.85
2018-08-13T04:59:11.057Z,932.89
2018-08-13T05:00:11.033Z,932.87
2018-08-13T05:01:11.013Z,932.88
2018-08-13T05:02:10.978Z,932.84
2018-08-13T05:03:10.957Z,932.84
2018-08-13T05:04:10.930Z,932.85
2018-08-13T05:05:10.909Z,932.80
2018-08-13T05:06:10.883Z,932.75
2018-08-13T05:07:10.852Z,932.80
2018-08-13T05:08:10.824Z,932.76
2018-08-13T05:09:10.798Z,932.77
2018-08-13T05:10:10.753Z,932.74
2018-08-13T05:11:10.748Z,932.76
2018-08-13T05:12:10.721Z,932.71
2018-08-13T05:13:10.692Z,932.68
2018-08-13T05:14:10.671Z,932.71
2018-08-13T05:15:10.641Z,932.73
2018-08-13T05:16:10.616Z,932.73
2018-08-13T05:17:10.570Z,932.68
2018-08-13T05:18:10.565Z,932.70
2018-08-13T05:19:10.532Z,932.64
2018-08-13T05:20:10.509Z,932.65
2018-08-13T05:21:10.538Z,932.61
2018-08-13T05:22:10.459Z,932.55
2018-08-13T05:23:10.436Z,932.63
2018-08-13T05:24:10.405Z,932.62
2018-08-13T05:25:10.390Z,932.56
2018-08-13T05:26:10.350Z,932.55
2018-08-13T05:27:10.328Z,932.53
2018-08-13T05:28:10.304Z,932.57
2018-08-13T05:29:10.271Z,932.53
2018-08-13T05:30:10.283Z,932.52
2018-08-13T05:31:10.221Z,932.55
2018-08-13T05:32:10.195Z,932.51
2018-08-13T05:33:10.169Z,932.52
2018-08-13T05:34:10.144Z,932.53
2018-08-13T05:35:10.117Z,932.50
2018-08-13T05:36:10.087Z,932.45
2018-08-13T05:37:10.060Z,932.45
2018-08-13T05:38:10.076Z,932.47
2018-08-13T05:39:10.011Z,932.42
2018-08-13T05:40:09.982Z,932.41
2018-08-13T05:41:09.955Z,932.40
2018-08-13T05:42:09.913Z,932.38
2018-08-13T05:43:09.904Z,932.38
2018-08-13T05:44:09.861Z,932.40
2018-08-13T05:45:09.860Z,932.40
2018-08-13T05:46:09.831Z,932.37
2018-08-13T05:47:09.801Z,932.35
2018-08-13T05:48:09.778Z,932.37
2018-08-13T05:49:09.752Z,932.36
2018-08-13T05:50:09.717Z,932.30
2018-08-13T05:51:09.698Z,932.37
2018-08-13T05:52:09.650Z,932.27
2018-08-13T05:53:09.628Z,932.31
2018-08-13T05:54:09.621Z,932.31
2018-08-13T05:55:09.596Z,932.32
2018-08-13T05:56:09.562Z,932.33
2018-08-13T05:57:09.541Z,932.34
2018-08-13T05:58:09.516Z,932.35
2018-08-13T05:59:09.486Z,932.37
2018-08-13T06:00:09.468Z,932.33
2018-08-13T06:01:09.416Z,932.32
2018-08-13T06:02:09.407Z,932.32
2018-08-13T06:03:09.422Z,932.31
2018-08-13T06:04:09.352Z,932.30
2018-08-13T06:05:09.330Z,932.30
2018-08-13T06:06:09.300Z,932.32
2018-08-13T06:07:09.273Z,932.31
2018-08-13T06:08:09.231Z,932.28
2018-08-13T06:09:09.216Z,932.30
2018-08-13T06:10:09.199Z,932.28
2018-08-13T06:11:09.190Z,932.33
2018-08-13T06:12:09.138Z,932.33
2018-08-13T06:13:09.120Z,932.31
2018-08-13T06:14:09.089Z,932.32
2018-08-13T06:15:09.062Z,932.30
2018-08-13T06:16:09.038Z,932.30
2018-08-13T06:17:09.016Z,932.34
2018-08-13T06:18:09.021Z,932.33
2018-08-13T06:19:08.957Z,932.32
2018-08-13T06:20:08.930Z,932.36
2018-08-13T06:21:08.903Z,932.36
2018-08-13T06:22:08.882Z,932.33
2018-08-13T06:23:08.850Z,932.33
2018-08-13T06:24:08.838Z,932.34
2018-08-13T06:25:08.803Z,932.34
2018-08-13T06:26:08.775Z,932.34
2018-08-13T06:27:08.751Z,932.37
2018-08-13T06:28:08.788Z,932.33
2018-08-13T06:29:08.696Z,932.37
2018-08-13T06:30:08.721Z,932.36
2018-08-13T06:31:08.645Z,932.36
2018-08-13T06:32:08.595Z,932.35
2018-08-13T06:33:08.643Z,932.30
2018-08-13T06:34:08.594Z,932.34
2018-08-13T06:35:08.543Z,932.38
2018-08-13T06:36:08.510Z,932.37
2018-08-13T06:37:08.512Z,932.37
2018-08-13T06:38:08.456Z,932.37
2018-08-13T06:39:08.431Z,932.36
2018-08-13T06:40:08.402Z,932.36
2018-08-13T06:41:08.376Z,932.35
2018-08-13T06:42:08.349Z,932.36
2018-08-13T06:43:08.326Z,932.36
2018-08-13T06:44:08.292Z,932.35
2018-08-13T06:45:08.270Z,932.33
2018-08-13T06:46:08.224Z,932.34
2018-08-13T06:47:08.261Z,932.32
2018-08-13T06:48:08.170Z,932.39
2018-08-13T06:49:08.167Z,932.40
2018-08-13T06:50:08.122Z,932.35
2018-08-13T06:51:08.114Z,932.35
2018-08-13T06:52:08.075Z,932.33
2018-08-13T06:53:08.060Z,932.32
2018-08-13T06:54:08.019Z,932.33
2018-08-13T06:55:08.412Z,932.29
2018-08-13T06:56:07.985Z,932.30
2018-08-13T06:57:07.953Z,932.24
2018-08-13T06:58:07.930Z,932.26
2018-08-13T06:59:07.897Z,932.24
2018-08-13T07:00:07.876Z,932.23
2018-08-13T07:01:07.860Z,932.23
2018-08-13T07:02:07.818Z,932.17
2018-08-13T07:03:07.775Z,932.18
2018-08-13T07:04:07.768Z,932.11
2018-08-13T07:05:07.743Z,932.12
2018-08-13T07:06:07.728Z,932.10
2018-08-13T07:07:07.672Z,932.07
2018-08-13T07:08:07.663Z,932.12
2018-08-13T07:09:07.634Z,932.05
2018-08-13T07:10:07.616Z,932.09
2018-08-13T07:11:07.593Z,932.06
2018-08-13T07:12:07.564Z,932.06
2018-08-13T07:13:07.532Z,932.07
2018-08-13T07:14:07.505Z,932.04
2018-08-13T07:15:07.485Z,932.03
2018-08-13T07:16:07.451Z,932.03
2018-08-13T07:17:07.431Z,932.02
2018-08-13T07:18:07.409Z,932.03
2018-08-13T07:19:07.381Z,932.08
2018-08-13T07:20:07.353Z,932.04
2018-08-13T07:21:07.326Z,932.08
2018-08-13T07:22:07.352Z,932.02
2018-08-13T07:23:07.271Z,932.03
2018-08-13T07:24:07.245Z,932.06
2018-08-13T07:25:07.215Z,932.05
2018-08-13T07:26:07.194Z,932.07
2018-08-13T07:27:07.164Z,932.07
2018-08-13T07:28:07.142Z,932.07
2018-08-13T07:29:07.116Z,932.09
2018-08-13T07:30:07.064Z,932.10
2018-08-13T07:31:07.063Z,932.11
2018-08-13T07:32:07.011Z,932.12
2018-08-13T07:33:07.006Z,932.13
2018-08-13T07:34:06.983Z,932.13
2018-08-13T07:35:06.964Z,932.07
2018-08-13T07:36:06.919Z,932.09
2018-08-13T07:37:06.901Z,932.14
2018-08-13T07:38:06.880Z,932.06
2018-08-13T07:39:06.930Z,932.11
2018-08-13T07:40:06.823Z,932.13
2018-08-13T07:41:06.776Z,932.15
2018-08-13T07:42:06.774Z,932.16
2018-08-13T07:43:06.738Z,932.17
2018-08-13T07:44:06.691Z,932.16
2018-08-13T07:45:06.689Z,932.17
2018-08-13T07:46:06.662Z,932.17
2018-08-13T07:47:06.635Z,932.18
2018-08-13T07:48:06.611Z,932.19
2018-08-13T07:49:06.561Z,932.18
2018-08-13T07:50:06.538Z,932.19
2018-08-13T07:51:06.524Z,932.22
2018-08-13T07:52:06.502Z,932.20
2018-08-13T07:53:06.470Z,932.21
2018-08-13T07:54:06.443Z,932.21
2018-08-13T07:55:06.424Z,932.19
2018-08-13T07:56:06.400Z,932.22
2018-08-13T07:57:06.349Z,932.24
2018-08-13T07:58:06.341Z,932.25
2018-08-13T07:59:06.315Z,932.26
2018-08-13T08:00:06.383Z,932.22
2018-08-13T08:01:06.260Z,932.27
2018-08-13T08:02:06.238Z,932.23
2018-08-13T08:03:06.206Z,932.23
2018-08-13T08:04:06.159Z,932.22
2018-08-13T08:05:06.158Z,932.23
2018-08-13T08:06:06.127Z,932.25
2018-08-13T08:07:06.113Z,932.24
2018-08-13T08:08:06.075Z,932.24
2018-08-13T08:09:06.078Z,932.26
2018-08-13T08:10:06.022Z,932.26
2018-08-13T08:11:05.984Z,932.26
2018-08-13T08:12:05.969Z,932.29
2018-08-13T08:13:05.929Z,932.27
2018-08-13T08:14:05.928Z,932.29
2018-08-13T08:15:05.896Z,932.32
2018-08-13T08:16:05.864Z,932.28
2018-08-13T08:17:05.852Z,932.30
2018-08-13T08:18:05.821Z,932.27
2018-08-13T08:19:05.791Z,932.27
2018-08-13T08:20:05.768Z,932.26
2018-08-13T08:21:05.720Z,932.27
2018-08-13T08:22:05.708Z,932.24
2018-08-13T08:23:05.690Z,932.26
2018-08-13T08:24:05.642Z,932.27
2018-08-13T08:25:05.613Z,932.26
2018-08-13T08:26:05.611Z,932.28
2018-08-13T08:27:05.589Z,932.25
2018-08-13T08:28:05.556Z,932.28
2018-08-13T08:29:05.540Z,932.31
2018-08-13T08:30:05.504Z,932.36
2018-08-13T08:31:05.484Z,932.32
2018-08-13T08:32:05.438Z,932.38
2018-08-13T08:33:05.432Z,932.35
2018-08-13T08:34:05.388Z,932.34
2018-08-13T08:35:05.373Z,932.33
2018-08-13T08:36:05.345Z,932.35
2018-08-13T08:37:05.328Z,932.35
2018-08-13T08:38:05.299Z,932.38
2018-08-13T08:39:05.278Z,932.35
2018-08-13T08:40:05.248Z,932.37
2018-08-13T08:41:05.229Z,932.36
2018-08-13T08:42:05.199Z,932.35
2018-08-13T08:43:05.175Z,932.42
2018-08-13T08:44:05.146Z,932.42
2018-08-13T08:45:05.119Z,932.44
2018-08-13T08:46:05.254Z,932.43
2018-08-13T08:47:05.074Z,932.49
2018-08-13T08:48:05.044Z,932.46
2018-08-13T08:49:05.018Z,932.46
2018-08-13T08:50:04.998Z,932.49
2018-08-13T08:51:04.970Z,932.50
2018-08-13T08:52:04.941Z,932.44
2018-08-13T08:53:04.918Z,932.44
2018-08-13T08:54:04.893Z,932.44
2018-08-13T08:55:04.865Z,932.53
2018-08-13T08:56:04.820Z,932.49
2018-08-13T08:57:04.814Z,932.53
2018-08-13T08:58:04.795Z,932.49
2018-08-13T08:59:04.763Z,932.49
2018-08-13T09:00:04.721Z,932.55
2018-08-13T09:01:04.711Z,932.51
2018-08-13T09:02:04.686Z,932.50
2018-08-13T09:03:04.661Z,932.53
2018-08-13T09:04:04.639Z,932.53
2018-08-13T09:05:04.615Z,932.51
2018-08-13T09:06:04.586Z,932.52
2018-08-13T09:07:04.559Z,932.52
2018-08-13T09:08:04.533Z,932.53
2018-08-13T09:09:04.493Z,932.57
2018-08-13T09:10:04.479Z,932.60
2018-08-13T09:11:04.459Z,932.56
2018-08-13T09:12:04.434Z,932.56
2018-08-13T09:13:04.415Z,932.58
2018-08-13T09:14:04.420Z,932.54
2018-08-13T09:15:04.354Z,932.54
2018-08-13T09:16:04.334Z,932.58
2018-08-13T09:17:04.289Z,932.65
2018-08-13T09:18:04.281Z,932.56
2018-08-13T09:19:04.308Z,932.59
2018-08-13T09:20:04.232Z,932.56
2018-08-13T09:21:04.203Z,932.60
2018-08-13T09:22:04.182Z,932.62
2018-08-13T09:23:04.163Z,932.60
2018-08-13T09:24:04.134Z,932.67
2018-08-13T09:25:04.109Z,932.64
2018-08-13T09:26:04.071Z,932.61
2018-08-13T09:27:04.057Z,932.69
2018-08-13T09:28:04.015Z,932.66
2018-08-13T09:29:04.002Z,932.69
2018-08-13T09:30:03.982Z,932.72
2018-08-13T09:31:03.954Z,932.65
2018-08-13T09:32:03.932Z,932.65
2018-08-13T09:33:03.902Z,932.68
2018-08-13T09:34:03.878Z,932.72
2018-08-13T09:35:03.852Z,932.69
2018-08-13T09:36:03.827Z,932.69
2018-08-13T09:37:03.806Z,932.66
2018-08-13T09:38:03.777Z,932.69
2018-08-13T09:39:03.748Z,932.72
2018-08-13T09:40:03.722Z,932.75
2018-08-13T09:41:03.701Z,932.71
2018-08-13T09:42:03.657Z,932.75
2018-08-13T09:43:03.637Z,932.72
2018-08-13T09:44:03.627Z,932.72
2018-08-13T09:45:03.590Z,932.73
2018-08-13T09:46:03.582Z,932.66
2018-08-13T09:47:03.551Z,932.70
2018-08-13T09:48:03.582Z,932.74
2018-08-13T09:49:03.507Z,932.76
2018-08-13T09:50:03.474Z,932.70
2018-08-13T09:51:03.455Z,932.73
2018-08-13T09:52:03.425Z,932.78
2018-08-13T09:53:03.396Z,932.80
2018-08-13T09:54:03.379Z,932.84
2018-08-13T09:55:03.351Z,932.82
2018-08-13T09:56:03.302Z,932.79
2018-08-13T09:57:03.286Z,932.84
2018-08-13T09:58:03.279Z,932.88
2018-08-13T09:59:03.224Z,932.87
2018-08-13T10:00:03.215Z,932.90
2018-08-13T10:01:03.198Z,932.86
2018-08-13T10:02:03.170Z,932.89
2018-08-13T10:03:03.153Z,932.91
2018-08-13T10:04:03.123Z,932.92
2018-08-13T10:05:03.091Z,932.95
2018-08-13T10:06:03.066Z,932.94
2018-08-13T10:07:03.043Z,932.97
2018-08-13T10:08:03.016Z,932.97
2018-08-13T10:09:02.991Z,932.93
2018-08-13T10:10:02.967Z,932.91
2018-08-13T10:11:02.940Z,932.93
2018-08-13T10:12:02.919Z,932.94
2018-08-13T10:13:02.893Z,932.99
2018-08-13T10:14:02.869Z,932.97
2018-08-13T10:15:02.836Z,932.97
2018-08-13T10:16:02.816Z,932.98
2018-08-13T10:17:02.794Z,933.01
2018-08-13T10:18:02.760Z,933.01
2018-08-13T10:19:02.743Z,932.98
2018-08-13T10:20:02.713Z,932.96
2018-08-13T10:21:02.691Z,932.94
2018-08-13T10:22:02.667Z,932.98
2018-08-13T10:23:02.647Z,932.98
2018-08-13T10:24:02.599Z,933.02
2018-08-13T10:25:02.588Z,933.05
2018-08-13T10:26:02.561Z,933.07
2018-08-13T10:27:02.539Z,933.10
2018-08-13T10:28:02.550Z,933.04
2018-08-13T10:29:02.493Z,933.12
2018-08-13T10:30:02.470Z,933.10
2018-08-13T10:31:02.441Z,933.10
2018-08-13T10:32:02.422Z,933.08
2018-08-13T10:33:02.393Z,933.07
2018-08-13T10:34:02.345Z,933.09
2018-08-13T10:35:02.346Z,933.15
2018-08-13T10:36:02.322Z,933.13
2018-08-13T10:37:02.293Z,933.18
2018-08-13T10:38:02.265Z,933.16
2018-08-13T10:39:02.241Z,933.19
2018-08-13T10:40:02.193Z,933.18
2018-08-13T10:41:02.201Z,933.17
2018-08-13T10:42:02.171Z,933.22
2018-08-13T10:43:02.145Z,933.18
2018-08-13T10:44:02.100Z,933.24
2018-08-13T10:45:02.098Z,933.25
2018-08-13T10:46:02.068Z,933.21
2018-08-13T10:47:02.039Z,933.26
2018-08-13T10:48:02.046Z,933.29
2018-08-13T10:49:01.998Z,933.31
2018-08-13T10:50:01.973Z,933.27
2018-08-13T10:51:01.950Z,933.23
2018-08-13T10:52:01.924Z,933.38
2018-08-13T10:53:01.881Z,933.33
2018-08-13T10:54:01.870Z,933.41
2018-08-13T10:55:01.850Z,933.40
2018-08-13T10:56:01.834Z,933.36
2018-08-13T10:57:01.776Z,933.43
2018-08-13T10:58:01.781Z,933.41
2018-08-13T10:59:01.750Z,933.36
2018-08-13T11:00:01.729Z,933.37
2018-08-13T11:01:01.780Z,933.42
2018-08-13T11:02:01.689Z,933.39
2018-08-13T11:03:01.766Z,933.46
2018-08-13T11:04:01.612Z,933.40
2018-08-13T11:05:01.589Z,933.46
2018-08-13T11:06:01.555Z,933.48
2018-08-13T11:07:01.539Z,933.48
2018-08-13T11:08:01.531Z,933.49
2018-08-13T11:09:01.510Z,933.50
2018-08-13T11:10:01.469Z,933.52
2018-08-13T11:11:01.463Z,933.53
2018-08-13T11:12:01.413Z,933.46
2018-08-13T11:13:01.714Z,933.55
2018-08-13T11:14:01.390Z,933.57
2018-08-13T11:15:01.362Z,933.59
2018-08-13T11:16:01.344Z,933.62
2018-08-13T11:17:01.309Z,933.63
2018-08-13T11:18:01.287Z,933.61
2018-08-13T11:19:01.247Z,933.56
2018-08-13T11:20:01.245Z,933.56
2018-08-13T11:21:01.222Z,933.62
2018-08-13T11:22:01.180Z,933.63
2018-08-13T11:23:01.171Z,933.67
2018-08-13T11:24:01.135Z,933.72
2018-08-13T11:25:01.106Z,933.67
2018-08-13T11:26:01.097Z,933.68
2018-08-13T11:27:01.072Z,933.72
2018-08-13T11:28:01.061Z,933.72
2018-08-13T11:29:01.030Z,933.76
2018-08-13T11:30:01.008Z,933.75
2018-08-13T11:31:00.983Z,933.78
2018-08-13T11:32:00.940Z,933.83
2018-08-13T11:33:00.924Z,933.79
2018-08-13T11:34:00.914Z,933.79
2018-08-13T11:35:00.889Z,933.80
2018-08-13T11:36:00.864Z,933.82
2018-08-13T11:37:00.844Z,933.88
2018-08-13T11:38:00.822Z,933.87
2018-08-13T11:39:00.795Z,933.83
2018-08-13T11:40:00.804Z,933.89
2018-08-13T11:41:00.725Z,933.97
2018-08-13T11:42:00.735Z,933.95
2018-08-13T11:43:00.710Z,933.89
2018-08-13T11:44:00.706Z,933.98
2018-08-13T11:45:00.656Z,933.95
2018-08-13T11:46:00.632Z,933.99
2018-08-13T11:47:00.614Z,934.02
2018-08-13T11:48:00.590Z,934.01
2018-08-13T11:49:00.541Z,934.01
2018-08-13T11:50:00.541Z,934.06
2018-08-13T11:51:00.520Z,934.06
2018-08-13T11:52:00.494Z,934.00
2018-08-13T11:53:00.470Z,933.97
2018-08-13T11:54:00.428Z,934.02
2018-08-13T11:55:00.405Z,934.00
2018-08-13T11:56:00.402Z,934.01
2018-08-13T11:57:00.383Z,934.03
2018-08-13T11:58:00.360Z,934.09
2018-08-13T11:59:00.339Z,934.11
2018-08-13T12:00:00.314Z,933.99
2018-08-13T12:01:00.306Z,933.97
2018-08-13T12:02:00.287Z,933.96
2018-08-13T12:03:00.248Z,933.99
2018-08-13T12:04:00.225Z,934.02
2018-08-13T12:05:00.197Z,934.01
2018-08-13T12:06:00.176Z,934.09
2018-08-13T12:07:00.149Z,934.11
2018-08-13T12:08:00.133Z,934.06
2018-08-13T12:09:00.109Z,933.97
2018-08-13T12:10:00.091Z,933.99
2018-08-13T12:11:00.068Z,933.93
2018-08-13T12:12:00.039Z,933.91
2018-08-13T12:13:00.023Z,933.79
2018-08-13T12:14:00.009Z,933.99
2018-08-13T12:14:59.973Z,934.07
2018-08-13T12:15:59.953Z,934.08
2018-08-13T12:16:59.925Z,933.89
2018-08-13T12:17:59.902Z,934.02
2018-08-13T12:18:59.888Z,934.04
2018-08-13T12:19:59.841Z,934.01
2018-08-13T12:20:59.833Z,933.92
2018-08-13T12:21:59.817Z,934.03
2018-08-13T12:22:59.766Z,933.82
2018-08-13T12:23:59.765Z,933.87
2018-08-13T12:24:59.736Z,933.83
2018-08-13T12:25:59.720Z,933.97
2018-08-13T12:26:59.692Z,934.03
2018-08-13T12:27:59.669Z,934.06